Aeroporto :







RITROVATECI SU...

 
LOGIN :

Iscrizione | Disclaimer

   EN    FR    IT 

 









Sommario :    VFR   VFR Marginale   IFR   IFR Intensivo   IFR Molto Intensivo
Visibilità : 
Base nubi : 
>= 8 km
>= 3000ft
5 / 8 km
1000 / 3000 ft
1500m / 5 km
500 / 1000 ft
800 / 1500m
200 / 500 ft
< 800m
< 200 ft
Simboli :   Temporali  Nebbia  Neve Forte  Precipitazioni Forti  Vento > 20 kt






- Altitudine del aeroporto : 545 ft


KLCI - Laconia Municipal

ULTIMO METAR :
  • 171256Z AUTO 23006KT 10SM SCT044 M02/M06 A3015 RMK AO2 SNE22 SLP216 P0000 T10171061 FZRANO

METARs OBSOLETI :
  • 171241Z AUTO 26006KT 10SM FEW029 OVC044 M02/M06 A3014 RMK AO2 SNE22 P0000 FZRANO
  • 171156Z AUTO 24005KT 9SM -SN BKN029 OVC034 M03/M06 A3011 RMK AO2 SNB40 SLP203 P0000 60000 T10331056 11022 21050 53024 FZRANO
  • 171056Z AUTO 26005KT 10SM CLR M05/M07 A3007 RMK AO2 SLP189 T10501067 FZRANO

TAF N/A



MetMap, La meteo Aeronautica in un colpo d'occhio ! - Copyright ORBIFLY Dicembre 2007 - Disclaimer

ORBIFLY MET'MAP TEAM :

Programmazione e sviluppo : Alexandra Zaïnal
Concezione : Baudouin d'Aumeries
Aiuto per la programmazione : Marc-Olivier Méhu
Supporto tecnico e logistico : Manuel Goepfert
Aiuto per la traduzione : Arnaldo La Scala

Contatto : metmap@orbifly.com




FONTI E CREDITI :

   NOAA